Time;durP1;ratioP1;P1;durP2;ratioP2;P2;SDS_P1;SDS_P2;PMS_P1;PMS_P2;Temp;Humidity;BMP_temperature;BMP_pressure;BME280_temperature;BME280_humidity;BME280_pressure;Samples;Min_cycle;Max_cycle;Signal;HPM_P1;HPM_P2
2022/10/04 00:00:39;;;;;;;14.32;10.65;;;;;;;10.30;77.19;101458.50;4123077;28;20042;-65
2022/10/04 00:02:47;;;;;;;16.40;10.90;;;;;;;10.29;76.74;101454.13;4164304;28;20088;-65
2022/10/04 00:04:56;;;;;;;17.35;11.32;;;;;;;10.33;76.42;101460.31;4163387;28;20037;-65
2022/10/04 00:07:05;;;;;;;19.70;12.30;;;;;;;10.35;76.71;101459.53;4154043;28;20042;-65
2022/10/04 00:09:14;;;;;;;19.05;12.00;;;;;;;10.38;76.51;101463.94;4159878;28;20037;-65
2022/10/04 00:11:25;;;;;;;18.27;11.75;;;;;;;10.33;75.78;101445.59;4159952;28;20091;-65
2022/10/04 00:13:29;;;;;;;17.05;11.30;;;;;;;10.32;76.86;101446.41;4163275;28;20410;-65
2022/10/04 00:15:36;;;;;;;16.67;11.07;;;;;;;10.34;76.64;101454.28;4162848;28;20082;-65
2022/10/04 00:17:38;;;;;;;19.35;10.02;;;;;;;10.30;76.74;101454.16;4155655;28;20033;-65
2022/10/04 00:19:45;;;;;;;17.77;10.85;;;;;;;10.23;76.00;101451.34;4163322;28;20446;-64
2022/10/04 00:22:17;;;;;;;16.88;11.55;;;;;;;10.19;76.92;101452.06;4152122;28;20042;-65
2022/10/04 00:24:21;;;;;;;16.73;10.55;;;;;;;10.17;76.05;101449.41;4141534;28;20104;-63
2022/10/04 00:27:12;;;;;;;15.93;10.93;;;;;;;10.16;76.22;101444.16;4146361;28;20495;-63
2022/10/04 00:29:31;;;;;;;15.60;10.95;;;;;;;10.14;76.41;101452.78;4097552;29;20047;-63
2022/10/04 00:31:54;;;;;;;14.40;10.13;;;;;;;10.16;76.49;101457.16;4088810;29;20056;-63
2022/10/04 00:34:38;;;;;;;17.38;9.93;;;;;;;10.15;76.68;101461.50;4123017;28;20511;-63
2022/10/04 00:36:55;;;;;;;16.17;9.55;;;;;;;10.15;76.41;101458.91;4145825;28;20058;-63
2022/10/04 00:39:18;;;;;;;13.90;8.93;;;;;;;10.06;76.35;101453.38;4146469;28;20046;-63
2022/10/04 00:41:21;;;;;;;21.88;11.25;;;;;;;10.04;77.07;101461.13;4163780;28;20152;-64
2022/10/04 00:43:29;;;;;;;13.43;10.30;;;;;;;10.07;76.86;101458.63;4157305;28;20052;-64
2022/10/04 00:45:36;;;;;;;20.65;12.15;;;;;;;10.10;76.65;101456.16;4158912;28;20438;-64
2022/10/04 00:48:01;;;;;;;17.48;11.55;;;;;;;10.07;76.01;101453.44;4166856;28;20073;-64
2022/10/04 00:50:15;;;;;;;17.33;11.63;;;;;;;10.06;76.61;101456.88;4150972;28;20072;-64
2022/10/04 00:52:25;;;;;;;17.60;10.32;;;;;;;10.00;76.28;101454.06;4156238;28;20542;-64
2022/10/04 00:54:34;;;;;;;16.92;10.57;;;;;;;10.04;76.14;101458.53;4164100;28;20453;-64
2022/10/04 00:56:42;;;;;;;16.67;10.60;;;;;;;10.08;75.90;101451.72;4156427;28;20034;-64
2022/10/04 00:59:02;;;;;;;13.88;9.68;;;;;;;10.06;75.91;101451.69;4148790;28;20042;-64
2022/10/04 01:01:05;;;;;;;17.00;11.32;;;;;;;9.99;75.92;101448.81;4166924;28;20041;-63
2022/10/04 01:03:13;;;;;;;16.40;11.48;;;;;;;10.01;76.33;101442.84;4162895;28;20099;-64
2022/10/04 01:05:21;;;;;;;15.98;10.13;;;;;;;9.98;76.51;101437.56;4148046;28;20559;-64
2022/10/04 01:07:29;;;;;;;14.50;9.10;;;;;;;10.02;76.29;101439.41;4163346;28;20052;-64
2022/10/04 01:09:36;;;;;;;17.50;9.68;;;;;;;10.03;76.57;101441.19;4149058;28;20089;-64
2022/10/04 01:11:44;;;;;;;13.40;9.57;;;;;;;9.97;76.08;101427.97;4166888;28;20474;-64
2022/10/04 01:13:51;;;;;;;16.20;10.05;;;;;;;9.93;76.08;101419.22;4131389;28;20043;-63
2022/10/04 01:15:59;;;;;;;12.57;8.88;;;;;;;9.91;76.20;101420.00;4143695;28;20050;-64
2022/10/04 01:18:16;;;;;;;17.98;11.45;;;;;;;9.95;76.06;101427.06;4166829;28;20069;-64
2022/10/04 01:20:32;;;;;;;19.63;9.50;;;;;;;9.88;75.81;101412.97;4166318;28;20038;-64
2022/10/04 01:22:41;;;;;;;14.65;10.65;;;;;;;9.73;75.84;101415.97;4166506;28;20255;-64
2022/10/04 01:24:45;;;;;;;14.95;10.02;;;;;;;9.65;76.22;101411.34;4147264;28;20046;-64
2022/10/04 01:26:48;;;;;;;14.95;10.07;;;;;;;9.65;76.26;101411.34;4162183;28;20372;-64
2022/10/04 01:28:51;;;;;;;14.95;9.88;;;;;;;9.67;76.86;101412.31;4136250;28;20531;-64
2022/10/04 01:30:54;;;;;;;19.23;10.48;;;;;;;9.72;75.95;101421.13;4148658;28;20528;-64
2022/10/04 01:32:57;;;;;;;15.15;9.57;;;;;;;9.72;75.63;101410.72;4166291;28;20566;-64
2022/10/04 01:35:00;;;;;;;18.42;10.43;;;;;;;9.74;75.68;101419.47;4163537;28;20118;-63
2022/10/04 01:37:03;;;;;;;14.40;9.52;;;;;;;9.73;76.17;101415.09;4158147;28;20487;-64
2022/10/04 01:39:08;;;;;;;14.20;8.27;;;;;;;9.76;76.01;101418.66;4154089;28;20044;-64
2022/10/04 01:41:14;;;;;;;13.82;9.20;;;;;;;9.74;75.70;101417.75;4154843;28;20447;-64
2022/10/04 01:43:27;;;;;;;16.15;10.80;;;;;;;9.76;76.33;101404.81;4163114;28;20049;-64
2022/10/04 01:45:37;;;;;;;16.58;10.20;;;;;;;9.75;76.23;101403.94;4132427;28;20089;-64
2022/10/04 01:47:44;;;;;;;15.82;9.80;;;;;;;9.71;76.21;101395.97;4147890;28;20045;-64
2022/10/04 01:49:48;;;;;;;18.05;9.98;;;;;;;9.69;76.25;101393.31;4151637;28;20108;-64
2022/10/04 01:51:57;;;;;;;11.52;9.13;;;;;;;9.70;75.86;101405.50;4154765;28;20099;-64
2022/10/04 01:54:05;;;;;;;11.68;9.70;;;;;;;9.69;75.77;101393.31;4140757;28;20100;-64
2022/10/04 01:56:13;;;;;;;13.88;9.55;;;;;;;9.69;75.71;101393.31;4151831;28;20550;-63
2022/10/04 01:58:21;;;;;;;16.13;11.10;;;;;;;9.72;75.95;101383.03;4149976;28;20507;-63
2022/10/04 02:00:24;;;;;;;14.05;9.85;;;;;;;9.72;75.56;101382.16;4146395;28;20100;-64
2022/10/04 02:02:35;;;;;;;15.88;9.48;;;;;;;9.67;75.76;101379.44;4158036;28;20113;-64
2022/10/04 02:04:40;;;;;;;16.33;10.65;;;;;;;9.63;76.40;101380.16;4148983;28;20037;-63
2022/10/04 02:06:45;;;;;;;14.50;9.35;;;;;;;9.63;75.74;101376.69;4149886;28;20475;-64
2022/10/04 02:08:52;;;;;;;13.05;9.30;;;;;;;9.61;76.00;101368.84;4154790;28;20045;-63
2022/10/04 02:10:56;;;;;;;15.65;9.48;;;;;;;9.58;76.36;101374.81;4157903;28;20034;-63
2022/10/04 02:13:00;;;;;;;13.90;9.50;;;;;;;9.60;75.78;101387.84;4166291;28;20521;-63
2022/10/04 02:15:07;;;;;;;15.45;8.70;;;;;;;9.59;76.05;101386.06;4162762;28;20045;-63
2022/10/04 02:17:12;;;;;;;15.63;8.88;;;;;;;9.55;75.98;101379.00;4162283;28;20040;-63
2022/10/04 02:19:15;;;;;;;15.00;11.07;;;;;;;9.53;75.58;101372.91;4164848;28;20107;-63
2022/10/04 02:21:20;;;;;;;14.90;9.50;;;;;;;9.55;75.78;101373.81;4157604;28;20069;-63
2022/10/04 02:23:24;;;;;;;13.38;9.43;;;;;;;9.54;76.08;101366.88;4146918;28;20045;-63
2022/10/04 02:25:27;;;;;;;14.90;9.38;;;;;;;9.54;76.12;101359.97;4148034;28;20049;-63
2022/10/04 02:27:30;;;;;;;13.40;9.35;;;;;;;9.55;75.91;101353.03;4165613;28;20061;-63
2022/10/04 02:29:34;;;;;;;12.02;9.32;;;;;;;9.48;75.88;101351.97;4146904;28;20038;-63
2022/10/04 02:34:00;;;;;;;15.55;8.77;;;;;;;9.39;76.62;101344.78;4130858;28;20075;-63
2022/10/04 02:36:04;;;;;;;14.60;9.85;;;;;;;9.42;76.46;101336.22;4165404;28;20048;-64
2022/10/04 02:38:13;;;;;;;16.55;9.70;;;;;;;9.40;76.76;101338.75;4147834;28;20073;-63
2022/10/04 02:40:19;;;;;;;14.13;9.07;;;;;;;9.37;76.74;101341.22;4164328;28;20033;-63
2022/10/04 02:42:36;;;;;;;12.88;8.48;;;;;;;9.30;76.97;101343.56;4143293;28;20524;-64
2022/10/04 02:44:44;;;;;;;14.48;10.00;;;;;;;9.31;76.86;101341.03;4145555;28;20081;-64
2022/10/04 02:46:51;;;;;;;16.20;9.02;;;;;;;9.34;76.57;101348.03;4165382;28;20041;-64
2022/10/04 02:48:58;;;;;;;14.13;9.38;;;;;;;9.33;76.35;101349.75;4131580;28;20093;-64
2022/10/04 02:51:14;;;;;;;15.02;9.77;;;;;;;9.34;76.43;101345.44;4165289;28;20487;-64
2022/10/04 02:53:25;;;;;;;13.70;8.55;;;;;;;9.30;76.21;101351.34;4162692;28;20151;-64
2022/10/04 02:55:30;;;;;;;14.18;9.60;;;;;;;9.26;76.98;101340.00;4152013;28;20037;-64
2022/10/04 02:57:35;;;;;;;14.93;9.93;;;;;;;9.26;77.01;101340.00;4149047;28;20049;-64
2022/10/04 02:59:39;;;;;;;14.88;8.63;;;;;;;9.25;76.77;101335.63;4154697;28;20076;-64
2022/10/04 03:01:50;;;;;;;17.45;9.98;;;;;;;9.26;76.82;101327.03;4147762;28;20109;-64
2022/10/04 03:03:55;;;;;;;14.73;9.90;;;;;;;9.27;76.68;101333.97;4145749;28;20539;-64
2022/10/04 03:06:01;;;;;;;;;;;;;;;9.16;76.40;101331.03;4157013;28;20136;-64
2022/10/04 03:08:04;;;;;;;14.48;9.43;;;;;;;9.23;75.88;101329.53;4157416;28;20318;-64
2022/10/04 03:10:10;;;;;;;17.08;9.23;;;;;;;9.28;75.67;101327.94;4147385;28;20123;-64
2022/10/04 03:12:14;;;;;;;15.15;9.43;;;;;;;9.27;76.05;101321.00;4153452;28;20037;-64
2022/10/04 03:14:20;;;;;;;17.07;9.77;;;;;;;9.30;75.91;101328.00;4148045;28;20496;-64
2022/10/04 03:16:23;;;;;;;17.63;10.68;;;;;;;9.28;75.48;101327.94;4151206;28;20496;-64
2022/10/04 03:18:30;;;;;;;16.30;9.32;;;;;;;9.28;75.35;101327.09;4147214;28;20213;-64
2022/10/04 03:20:37;;;;;;;14.05;8.65;;;;;;;9.27;75.61;101331.38;4149618;28;20045;-64
2022/10/04 03:22:40;;;;;;;13.05;8.23;;;;;;;9.27;75.97;101326.19;4131163;28;20088;-64
2022/10/04 03:24:52;;;;;;;13.52;9.25;;;;;;;9.32;75.83;101329.81;4156661;28;20041;-64
2022/10/04 03:26:58;;;;;;;12.25;8.45;;;;;;;9.29;75.99;101321.94;4164702;28;20033;-64
2022/10/04 03:29:01;;;;;;;15.52;9.68;;;;;;;9.30;76.11;101323.72;4145924;28;20049;-64
2022/10/04 03:31:05;;;;;;;16.17;9.63;;;;;;;9.34;75.91;101317.78;4134978;28;20093;-64
2022/10/04 03:33:08;;;;;;;15.15;9.25;;;;;;;9.37;76.10;101319.59;4163925;28;20072;-63
2022/10/04 03:35:27;;;;;;;13.82;8.75;;;;;;;9.39;76.36;101321.41;4146817;28;20046;-64
2022/10/04 03:37:34;;;;;;;14.38;8.07;;;;;;;9.37;76.35;101323.06;4164165;28;20490;-63
2022/10/04 03:39:40;;;;;;;13.63;8.80;;;;;;;9.37;75.78;101324.78;4129178;28;20046;-63
2022/10/04 03:41:43;;;;;;;15.25;8.40;;;;;;;9.35;75.86;101334.25;4162988;28;20037;-63
2022/10/04 03:43:49;;;;;;;13.80;8.27;;;;;;;9.37;75.51;101336.03;4155702;28;20042;-62
2022/10/04 03:45:53;;;;;;;13.45;8.88;;;;;;;9.37;75.41;101332.56;4148320;28;20557;-63
2022/10/04 03:48:02;;;;;;;13.60;8.30;;;;;;;9.34;75.94;101328.16;4157077;28;20422;-62
2022/10/04 03:50:14;;;;;;;14.05;8.98;;;;;;;9.31;76.17;101337.56;4155862;28;20033;-63
2022/10/04 03:52:22;;;;;;;14.18;8.98;;;;;;;9.23;76.49;101335.59;4163531;28;20041;-63
2022/10/04 03:54:27;;;;;;;18.08;9.75;;;;;;;9.17;76.78;101326.69;4156919;28;20042;-63
2022/10/04 03:56:32;;;;;;;13.75;7.90;;;;;;;9.16;76.79;101332.75;4141791;28;20041;-63
2022/10/04 03:58:36;;;;;;;12.57;8.32;;;;;;;9.13;77.04;101327.44;4152566;28;20042;-64
2022/10/04 04:00:44;;;;;;;13.70;8.25;;;;;;;9.18;76.94;101328.47;4163026;28;20124;-63
2022/10/04 04:02:50;;;;;;;14.60;9.85;;;;;;;9.15;77.07;101328.38;4163407;28;20052;-63
2022/10/04 04:05:04;;;;;;;19.58;9.48;;;;;;;9.18;77.03;101336.25;4163273;28;20052;-63
2022/10/04 04:07:13;;;;;;;14.68;8.80;;;;;;;9.16;76.67;101338.81;4145832;28;20057;-63
2022/10/04 04:09:23;;;;;;;13.93;8.30;;;;;;;9.09;77.09;101332.50;4156027;28;20592;-63
2022/10/04 04:11:27;;;;;;;12.88;8.50;;;;;;;9.15;76.74;101338.75;4158853;28;20057;-63
2022/10/04 04:13:38;;;;;;;14.85;8.73;;;;;;;9.18;76.73;101336.25;4156064;28;20056;-63
2022/10/04 04:15:44;;;;;;;15.15;9.60;;;;;;;9.18;76.75;101333.66;4160126;28;20052;-63
2022/10/04 04:17:51;;;;;;;17.92;9.88;;;;;;;9.20;77.01;101337.19;4157492;28;20045;-63
2022/10/04 04:19:57;;;;;;;20.00;10.50;;;;;;;9.21;77.03;101336.34;4146275;28;20095;-63
2022/10/04 04:22:00;;;;;;;21.00;11.15;;;;;;;9.18;77.11;101344.03;4147958;28;20483;-62
2022/10/04 04:24:08;;;;;;;19.92;9.77;;;;;;;9.16;76.99;101344.00;4146488;28;20522;-63
2022/10/04 04:26:21;;;;;;;24.35;10.88;;;;;;;9.14;77.21;101347.34;4155360;28;20155;-63
2022/10/04 04:28:28;;;;;;;17.95;10.82;;;;;;;9.10;77.12;101343.78;4155936;28;20048;-63
2022/10/04 04:30:34;;;;;;;25.52;11.25;;;;;;;9.06;77.34;101345.38;4163946;28;20045;-63
2022/10/04 04:32:42;;;;;;;19.15;11.50;;;;;;;9.13;77.24;101345.63;4164117;28;20068;-63
2022/10/04 04:34:51;;;;;;;23.58;11.55;;;;;;;9.12;77.47;101352.50;4163355;28;20392;-62
2022/10/04 04:36:59;;;;;;;20.70;10.98;;;;;;;9.12;77.48;101346.44;4145662;28;20045;-62
2022/10/04 04:41:34;;;;;;;19.35;11.13;;;;;;;9.07;77.36;101343.69;4132593;28;20112;-64
2022/10/04 04:43:43;;;;;;;28.35;12.55;;;;;;;9.14;76.83;101349.94;4154309;28;20376;-64
2022/10/04 04:45:48;;;;;;;21.70;12.18;;;;;;;9.20;76.25;101339.78;4155762;28;20041;-64
2022/10/04 04:48:14;;;;;;;22.77;10.57;;;;;;;9.19;76.28;101353.59;4149432;28;20125;-64
2022/10/04 04:50:19;;;;;;;16.63;9.88;;;;;;;9.19;76.29;101344.09;4146229;28;20054;-64
2022/10/04 04:52:32;;;;;;;20.17;11.32;;;;;;;9.20;76.78;101350.16;4150043;28;20048;-64
2022/10/04 04:54:35;;;;;;;19.80;11.38;;;;;;;9.21;76.73;101346.75;4146779;28;20046;-64
2022/10/04 04:56:42;;;;;;;24.63;13.52;;;;;;;9.31;77.13;101353.13;4130168;28;20050;-64
2022/10/04 04:58:47;;;;;;;33.63;19.10;;;;;;;9.33;76.91;101346.25;4151607;28;20041;-64
2022/10/04 05:00:56;;;;;;;21.77;12.35;;;;;;;9.32;76.88;101345.41;4155604;28;20565;-64
2022/10/04 05:03:01;;;;;;;19.80;11.98;;;;;;;9.32;77.31;101341.94;4163764;28;20046;-64
2022/10/04 05:05:14;;;;;;;;;;;;;;;9.15;77.80;101343.94;4163599;28;20041;-64
2022/10/04 05:07:18;;;;;;;29.75;16.00;;;;;;;9.17;77.92;101335.38;4146429;28;19922;-64
2022/10/04 05:09:24;;;;;;;51.60;21.15;;;;;;;9.20;77.75;101330.31;4158451;28;20037;-64
2022/10/04 05:11:29;;;;;;;44.45;19.67;;;;;;;9.20;78.02;101332.00;4155484;28;20030;-64
2022/10/04 05:13:38;;;;;;;60.53;26.95;;;;;;;9.29;77.97;101329.72;4145499;28;20038;-64
2022/10/04 05:15:42;;;;;;;55.63;25.45;;;;;;;9.30;78.17;101325.41;4138267;28;20512;-64
2022/10/04 05:17:45;;;;;;;54.58;25.48;;;;;;;9.30;78.51;101331.50;4163285;28;20048;-64
2022/10/04 05:19:50;;;;;;;58.45;25.17;;;;;;;9.33;78.51;101334.19;4154722;28;20045;-64
2022/10/04 05:21:55;;;;;;;52.95;24.17;;;;;;;9.30;78.55;101330.59;4147369;28;20033;-63
2022/10/04 05:24:07;;;;;;;50.53;23.70;;;;;;;9.26;78.86;101334.81;4146652;28;20077;-64
2022/10/04 05:26:12;;;;;;;60.20;28.02;;;;;;;9.22;79.32;101330.34;4147416;28;20077;-64
2022/10/04 05:28:17;;;;;;;50.40;25.83;;;;;;;9.24;79.14;101342.56;4146998;28;20403;-63
2022/10/04 05:30:26;;;;;;;;;;;;;;;9.16;79.92;101335.34;4156690;28;20490;-63
2022/10/04 05:32:43;;;;;;;42.67;22.40;;;;;;;9.20;79.73;101339.78;4153036;28;19960;-63
2022/10/04 05:34:49;;;;;;;39.13;19.55;;;;;;;9.23;80.17;101329.53;4132271;28;20038;-63
2022/10/04 05:37:22;;;;;;;36.60;21.00;;;;;;;9.24;79.63;101331.28;4132873;28;20109;-63
2022/10/04 05:39:28;;;;;;;33.03;18.38;;;;;;;9.26;79.92;101324.44;4144346;28;20033;-63
2022/10/04 05:41:40;;;;;;;33.50;18.70;;;;;;;9.29;79.76;101319.34;4138311;28;20487;-64
2022/10/04 05:43:45;;;;;;;28.63;17.08;;;;;;;9.30;79.76;101320.22;4165821;28;20136;-63
2022/10/04 05:46:18;;;;;;;26.23;14.60;;;;;;;9.30;79.00;101325.41;4149041;28;20108;-64
2022/10/04 05:48:21;;;;;;;20.92;12.48;;;;;;;9.26;79.47;101324.44;4166479;28;20045;-64
2022/10/04 05:50:30;;;;;;;20.05;10.82;;;;;;;9.34;78.53;101322.97;4157340;28;20111;-63
2022/10/04 05:52:35;;;;;;;22.65;12.40;;;;;;;9.33;78.59;101321.22;4152480;28;20080;-64
2022/10/04 05:54:38;;;;;;;18.02;11.85;;;;;;;9.35;78.79;101316.06;4149377;28;20045;-63
2022/10/04 05:57:07;;;;;;;12.45;8.55;;;;;;;9.38;78.36;101314.44;4150026;28;20116;-64
2022/10/04 05:59:25;;;;;;;15.68;9.38;;;;;;;9.32;78.16;101315.97;4151293;28;20057;-64
2022/10/04 06:01:42;;;;;;;12.45;8.10;;;;;;;9.34;78.32;101315.19;4143266;28;20121;-64
2022/10/04 06:04:03;;;;;;;11.55;8.63;;;;;;;9.34;77.71;101320.38;4149492;28;20048;-64
2022/10/04 06:06:16;;;;;;;9.77;6.65;;;;;;;9.36;77.85;101313.53;4142918;28;20034;-64
2022/10/04 06:08:31;;;;;;;14.77;9.00;;;;;;;9.35;77.72;101324.72;4148727;28;20507;-64
2022/10/04 06:10:49;;;;;;;14.43;8.52;;;;;;;9.35;77.40;101334.25;4166224;28;20048;-64
2022/10/04 06:12:57;;;;;;;11.85;8.57;;;;;;;9.35;77.89;101334.25;4165261;28;20091;-64
2022/10/04 06:15:13;;;;;;;13.02;8.20;;;;;;;9.37;77.92;101342.94;4144182;28;20129;-64
2022/10/04 06:17:38;;;;;;;9.95;7.53;;;;;;;9.33;78.04;101351.47;4154149;28;20088;-64
2022/10/04 06:20:05;;;;;;;11.70;8.85;;;;;;;9.32;78.11;101354.91;4149615;28;20064;-64
2022/10/04 06:22:16;;;;;;;10.30;7.88;;;;;;;9.35;78.22;101352.41;4149689;28;20053;-63
2022/10/04 06:24:25;;;;;;;12.32;7.88;;;;;;;9.42;77.85;101360.44;4155450;28;20475;-64
2022/10/04 06:26:39;;;;;;;10.32;8.00;;;;;;;9.38;78.04;101352.50;4142858;28;20167;-63
2022/10/04 06:28:46;;;;;;;11.38;8.75;;;;;;;9.36;78.35;101354.16;4149464;28;20038;-64
2022/10/04 06:31:07;;;;;;;11.65;7.85;;;;;;;9.31;78.04;101356.59;4149461;28;20034;-64
2022/10/04 06:33:34;;;;;;;12.13;8.30;;;;;;;9.30;78.31;101359.13;4131721;28;20819;-64
2022/10/04 06:36:20;;;;;;;13.18;8.18;;;;;;;9.31;78.43;101361.78;4157688;28;20038;-64
2022/10/04 06:39:00;;;;;;;14.18;8.73;;;;;;;9.29;78.53;101355.69;4149426;28;20041;-64
2022/10/04 06:41:33;;;;;;;12.57;7.95;;;;;;;9.32;78.75;101358.38;4115361;28;20050;-63
2022/10/04 06:44:01;;;;;;;11.73;8.73;;;;;;;9.42;79.05;101355.25;4108651;28;20066;-64
2022/10/04 06:46:20;;;;;;;14.88;9.20;;;;;;;9.47;78.65;101354.53;4149317;28;20558;-64
2022/10/04 06:48:55;;;;;;;13.82;9.75;;;;;;;9.46;78.19;101352.75;4131799;28;20050;-63
2022/10/04 06:51:08;;;;;;;14.70;9.02;;;;;;;9.46;78.89;101351.03;4118241;28;20050;-65
2022/10/04 06:53:19;;;;;;;11.10;8.50;;;;;;;9.53;78.75;101345.22;4154168;28;20140;-64
2022/10/04 06:55:47;;;;;;;12.20;9.38;;;;;;;9.61;78.62;101345.47;4152759;28;20526;-64
2022/10/04 06:58:33;;;;;;;11.50;8.68;;;;;;;9.60;78.03;101347.19;4148961;28;20046;-63
2022/10/04 07:00:44;;;;;;;13.50;9.13;;;;;;;9.59;78.91;101355.81;4083116;29;20525;-64
2022/10/04 07:02:52;;;;;;;16.15;9.30;;;;;;;9.63;78.74;101364.56;4096900;29;20299;-64
2022/10/04 07:05:02;;;;;;;14.00;9.27;;;;;;;9.64;79.13;101363.75;4092731;28;20496;-63
2022/10/04 07:07:33;;;;;;;12.18;9.38;;;;;;;9.70;78.50;101374.31;4131658;28;20473;-63
2022/10/04 07:09:37;;;;;;;;;;;;;;;9.61;79.21;101364.53;4149345;28;20455;-66
2022/10/04 07:11:49;;;;;;;13.38;9.68;;;;;;;9.70;79.28;101368.25;4151592;28;20008;-64
2022/10/04 07:13:56;;;;;;;12.45;9.30;;;;;;;9.74;78.92;101371.00;4156145;28;20046;-64
2022/10/04 07:16:05;;;;;;;14.40;9.77;;;;;;;9.82;79.50;101367.78;4148818;28;20045;-64
2022/10/04 07:18:14;;;;;;;14.80;9.68;;;;;;;9.84;79.17;101368.69;4148817;28;20042;-62
2022/10/04 07:20:23;;;;;;;17.92;11.45;;;;;;;9.87;79.58;101382.66;4148704;28;20100;-62
2022/10/04 07:22:30;;;;;;;17.65;11.80;;;;;;;9.99;79.45;101389.06;4144977;28;20034;-62
2022/10/04 07:24:46;;;;;;;17.92;11.35;;;;;;;10.06;79.45;101389.31;4150228;28;20092;-62
2022/10/04 07:26:52;;;;;;;30.70;17.85;;;;;;;10.10;78.87;101391.19;4148523;28;20049;-62
2022/10/04 07:31:24;;;;;;;30.35;18.65;;;;;;;10.14;79.29;101389.56;4156760;28;20107;-62
2022/10/04 07:33:31;;;;;;;37.35;21.30;;;;;;;10.18;79.22;101382.72;4160966;28;20033;-62
2022/10/04 07:35:43;;;;;;;33.90;19.88;;;;;;;10.24;79.48;101372.53;4147284;28;20050;-62
2022/10/04 07:37:52;;;;;;;33.17;19.77;;;;;;;10.27;79.39;101370.91;4163037;28;20099;-62
2022/10/04 07:40:02;;;;;;;30.35;16.63;;;;;;;10.32;78.53;101368.44;4159486;28;20049;-63
2022/10/04 07:42:14;;;;;;;28.45;17.42;;;;;;;10.34;78.82;101371.13;4154364;28;20045;-63
2022/10/04 07:44:26;;;;;;;29.90;16.05;;;;;;;10.35;78.73;101373.75;4157818;28;20483;-63
2022/10/04 07:46:44;;;;;;;26.08;17.10;;;;;;;10.37;79.05;101384.22;4153659;28;20041;-63
2022/10/04 07:48:48;;;;;;;24.58;16.95;;;;;;;10.36;79.32;101385.94;4164614;28;20091;-63
2022/10/04 07:51:04;;;;;;;30.40;18.55;;;;;;;10.38;78.95;101389.47;4164646;28;20076;-63
2022/10/04 07:53:12;;;;;;;34.38;20.30;;;;;;;10.44;78.38;101389.66;4160569;28;20029;-62
2022/10/04 07:55:23;;;;;;;38.03;23.13;;;;;;;10.57;78.28;101383.09;4159474;28;20124;-63
2022/10/04 07:57:30;;;;;;;26.75;18.40;;;;;;;10.60;78.06;101377.06;4164555;28;20038;-62
2022/10/04 07:59:45;;;;;;;33.97;20.08;;;;;;;10.62;78.07;101378.03;4164492;28;20037;-63
2022/10/04 08:02:00;;;;;;;27.55;18.45;;;;;;;10.66;78.72;101379.88;4146546;28;20052;-62
2022/10/04 08:04:29;;;;;;;31.70;19.27;;;;;;;10.60;78.24;101377.97;4153070;28;20046;-63
2022/10/04 08:06:38;;;;;;;30.42;20.17;;;;;;;10.58;78.37;101383.97;4155854;28;20092;-63
2022/10/04 08:09:01;;;;;;;31.23;18.58;;;;;;;10.67;78.31;101384.22;4145867;28;20038;-63
2022/10/04 08:11:29;;;;;;;31.35;21.98;;;;;;;10.81;77.52;101382.91;4156029;28;20041;-63
2022/10/04 08:13:40;;;;;;;30.55;20.17;;;;;;;10.93;77.34;101376.28;4161037;28;20403;-63
2022/10/04 08:15:44;;;;;;;28.15;18.88;;;;;;;10.96;77.78;101376.34;4164229;28;20099;-63
2022/10/04 08:17:56;;;;;;;31.70;18.38;;;;;;;11.03;77.60;101374.81;4164353;28;20045;-63
2022/10/04 08:20:13;;;;;;;29.88;20.23;;;;;;;11.08;77.89;101375.81;4162011;28;20073;-63
2022/10/04 08:22:27;;;;;;;39.50;22.67;;;;;;;11.17;77.60;101376.06;4155386;28;20030;-63
2022/10/04 08:24:35;;;;;;;29.77;20.23;;;;;;;11.21;77.10;101367.47;4145659;28;20519;-63
2022/10/04 08:26:49;;;;;;;34.83;23.55;;;;;;;11.23;77.04;101367.53;4128723;28;20125;-63
2022/10/04 08:31:37;;;;;;;25.10;17.45;;;;;;;11.22;77.71;101358.84;4146093;28;20038;-63
2022/10/04 08:34:02;;;;;;;36.38;19.52;;;;;;;11.20;77.19;101370.03;4145148;28;20034;-63
2022/10/04 08:36:17;;;;;;;22.35;17.40;;;;;;;11.11;77.13;101370.69;4146264;28;20053;-63
2022/10/04 08:38:41;;;;;;;34.13;19.23;;;;;;;11.11;77.28;101368.97;4144990;28;20046;-63
2022/10/04 08:41:07;;;;;;;27.23;18.40;;;;;;;11.18;77.52;101360.50;4161086;28;20041;-63
2022/10/04 08:43:39;;;;;;;25.67;17.20;;;;;;;11.24;77.04;101361.47;4155391;28;20389;-63
2022/10/04 08:46:14;;;;;;;28.38;15.20;;;;;;;11.31;76.99;101351.25;4155522;28;20037;-63
2022/10/04 08:48:50;;;;;;;26.03;16.97;;;;;;;11.38;76.58;101344.50;4139985;28;20136;-63
2022/10/04 08:51:26;;;;;;;22.48;16.13;;;;;;;11.43;76.43;101355.88;4155748;28;20037;-63
2022/10/04 08:54:00;;;;;;;22.17;15.48;;;;;;;11.37;77.32;101355.75;4129275;28;20038;-63
2022/10/04 08:56:17;;;;;;;22.02;13.38;;;;;;;11.44;77.07;101364.59;4147789;28;20038;-63
2022/10/04 08:58:40;;;;;;;22.08;14.00;;;;;;;11.35;76.50;101358.31;4142293;28;20049;-63
2022/10/04 09:01:00;;;;;;;22.50;14.60;;;;;;;11.32;76.48;101360.84;4130873;28;20046;-63
2022/10/04 09:03:30;;;;;;;22.15;13.43;;;;;;;11.33;76.43;101354.81;4147579;28;20042;-63
2022/10/04 09:05:56;;;;;;;27.17;12.85;;;;;;;11.31;76.90;101363.41;4133395;28;20058;-63
2022/10/04 09:08:31;;;;;;;18.60;12.90;;;;;;;11.30;76.34;101356.44;4133342;28;20408;-63
2022/10/04 09:10:43;;;;;;;18.30;12.57;;;;;;;11.23;76.48;101358.00;4122058;28;20050;-63
2022/10/04 09:12:56;;;;;;;19.65;12.85;;;;;;;11.35;76.95;101367.84;4150976;28;20820;-63
2022/10/04 09:15:21;;;;;;;20.38;13.60;;;;;;;11.48;76.59;101356.91;4149952;28;20545;-63
2022/10/04 09:17:38;;;;;;;19.70;11.52;;;;;;;11.65;76.50;101361.63;4133355;28;20415;-63
2022/10/04 09:19:53;;;;;;;23.88;13.18;;;;;;;11.80;76.07;101356.81;4150734;28;20046;-63
2022/10/04 09:22:17;;;;;;;19.60;12.35;;;;;;;11.94;75.50;101351.06;4155349;28;20096;-63
2022/10/04 09:24:53;;;;;;;19.30;12.15;;;;;;;12.11;75.22;101349.72;4153291;28;20492;-63
2022/10/04 09:27:10;;;;;;;19.75;11.68;;;;;;;12.27;73.78;101343.13;4150501;28;20125;-63
2022/10/04 09:29:51;;;;;;;18.73;10.02;;;;;;;12.36;73.22;101345.03;4151308;28;20049;-64
2022/10/04 09:32:24;;;;;;;19.00;10.02;;;;;;;12.34;73.26;101346.75;4159264;28;20045;-63
2022/10/04 09:34:40;;;;;;;16.73;10.60;;;;;;;12.42;72.81;101345.16;4165811;28;20044;-64
2022/10/04 09:37:06;;;;;;;16.58;9.38;;;;;;;12.36;72.84;101347.66;4166724;28;20389;-64
2022/10/04 09:39:37;;;;;;;14.55;9.00;;;;;;;12.33;72.94;101350.19;4135401;28;21254;-63
2022/10/04 09:42:14;;;;;;;11.90;7.72;;;;;;;12.39;73.00;101355.53;4147853;28;20439;-64
2022/10/04 09:44:47;;;;;;;11.95;7.80;;;;;;;12.34;72.87;101351.97;4149402;28;20037;-63
2022/10/04 09:47:15;;;;;;;16.05;8.10;;;;;;;12.35;72.52;101353.69;4149867;28;20053;-64
2022/10/04 09:49:36;;;;;;;15.98;8.70;;;;;;;12.20;73.19;101349.91;4162176;28;20129;-64
2022/10/04 09:52:14;;;;;;;18.95;11.45;;;;;;;12.29;72.80;101357.06;4139496;28;20100;-64
2022/10/04 09:54:48;;;;;;;14.32;8.93;;;;;;;12.33;73.62;101356.28;4157737;28;20386;-63
2022/10/04 09:57:08;;;;;;;11.38;7.55;;;;;;;12.50;73.43;101356.63;4156228;28;20034;-63
2022/10/04 09:59:34;;;;;;;16.48;9.40;;;;;;;12.74;73.12;101352.75;4137671;28;20038;-63
2022/10/04 10:01:43;;;;;;;11.38;8.30;;;;;;;12.96;72.13;101354.06;4150007;28;20034;-64
2022/10/04 10:04:21;;;;;;;15.27;8.80;;;;;;;12.96;71.86;101348.81;4149158;28;20038;-63
2022/10/04 10:06:40;;;;;;;13.13;8.77;;;;;;;13.16;71.50;101345.72;4154940;28;20061;-63
2022/10/04 10:08:55;;;;;;;15.65;8.77;;;;;;;13.17;71.63;101337.91;4158277;28;20045;-63
2022/10/04 10:13:58;;;;;;;13.57;8.85;;;;;;;13.45;70.30;101341.03;4131861;28;20072;-64
2022/10/04 10:16:11;;;;;;;14.27;7.18;;;;;;;13.38;71.06;101347.00;4149092;28;20046;-63
2022/10/04 10:18:26;;;;;;;14.13;8.10;;;;;;;13.62;69.29;101341.28;4153683;28;20045;-64
2022/10/04 10:21:04;;;;;;;12.07;6.43;;;;;;;13.47;70.17;101347.16;4156877;28;20038;-64
2022/10/04 10:23:38;;;;;;;13.52;7.20;;;;;;;13.49;70.66;101332.41;4155446;28;20051;-64
2022/10/04 10:25:52;;;;;;;10.75;7.00;;;;;;;13.59;70.88;101336.00;4157627;28;20034;-64